Royse City's Hourly Summary for Sunday, July 8, 2018
Hour Temp
(f)
RH
(%)
Solar Rad.
(MJ/m2)
Rainfall
(in)
Wind
(mph)
7/8/2018 12:00 AM 75 85 0 0 0
7/8/2018 1:00 AM 75 88 0 0 0
7/8/2018 2:00 AM 74 93 0 0 0
7/8/2018 3:00 AM 73 99 0 0 0
7/8/2018 4:00 AM 73 99 0 0 0
7/8/2018 5:00 AM 72 99 0 0 0
7/8/2018 6:00 AM 72 99 0 0 0
7/8/2018 7:00 AM 72 99 0.03 0 0
7/8/2018 8:00 AM 74 85 0.36 0 0
7/8/2018 9:00 AM 78 72 1.17 0 0
7/8/2018 10:00 AM 81 69 1.82 0 0
7/8/2018 11:00 AM 84 58 2.44 0 0.03
7/8/2018 12:00 PM 87 53 2.38 0 0.02
7/8/2018 1:00 PM 89 45 3.16 0 0.03
7/8/2018 2:00 PM 90 43 2.68 0 0.04
7/8/2018 3:00 PM 91 38 2.77 0 0.08
7/8/2018 4:00 PM 92 35 2.15 0 0.09
7/8/2018 5:00 PM 91 38 1.54 0 0.05
7/8/2018 6:00 PM 91 37 1.04 0 0.03
7/8/2018 7:00 PM 91 41 0.96 0 0.04
7/8/2018 8:00 PM 89 48 0.49 0 0.16
7/8/2018 9:00 PM 82 55 0.02 0 0.07
7/8/2018 10:00 PM 79 68 0 0 0
7/8/2018 11:00 PM 78 70 0 0 0
Data Summary 81 67 23.01 0.00 0.03